sensor_id;sensor_type;location;lat;lon;timestamp;temperature;humidity
1277;DHT22;631;51.024;13.826;2023-04-28T00:00:27;4.40;99.90
1277;DHT22;631;51.024;13.826;2023-04-28T00:02:53;4.40;99.90
1277;DHT22;631;51.024;13.826;2023-04-28T00:05:19;4.40;99.90
1277;DHT22;631;51.024;13.826;2023-04-28T00:07:47;4.40;99.90
1277;DHT22;631;51.024;13.826;2023-04-28T00:10:12;4.40;99.90
1277;DHT22;631;51.024;13.826;2023-04-28T00:12:38;4.40;99.90
1277;DHT22;631;51.024;13.826;2023-04-28T00:15:04;4.40;99.90
1277;DHT22;631;51.024;13.826;2023-04-28T00:17:30;4.30;99.90
1277;DHT22;631;51.024;13.826;2023-04-28T00:19:55;4.40;99.90
1277;DHT22;631;51.024;13.826;2023-04-28T00:22:22;4.40;99.90
1277;DHT22;631;51.024;13.826;2023-04-28T00:24:47;4.40;99.90
1277;DHT22;631;51.024;13.826;2023-04-28T00:27:13;4.40;99.90
1277;DHT22;631;51.024;13.826;2023-04-28T00:29:38;4.30;99.90
1277;DHT22;631;51.024;13.826;2023-04-28T00:32:04;4.40;99.90
1277;DHT22;631;51.024;13.826;2023-04-28T00:34:33;4.40;99.90
1277;DHT22;631;51.024;13.826;2023-04-28T00:37:02;4.30;99.90
1277;DHT22;631;51.024;13.826;2023-04-28T00:39:27;4.30;99.90
1277;DHT22;631;51.024;13.826;2023-04-28T00:41:53;4.30;99.90
1277;DHT22;631;51.024;13.826;2023-04-28T00:44:19;4.30;99.90
1277;DHT22;631;51.024;13.826;2023-04-28T00:46:45;4.20;99.90
1277;DHT22;631;51.024;13.826;2023-04-28T00:49:11;4.20;99.90
1277;DHT22;631;51.024;13.826;2023-04-28T00:51:36;4.20;99.90
1277;DHT22;631;51.024;13.826;2023-04-28T00:54:03;4.20;99.90
1277;DHT22;631;51.024;13.826;2023-04-28T00:56:30;4.20;99.90
1277;DHT22;631;51.024;13.826;2023-04-28T00:58:56;4.20;99.90
1277;DHT22;631;51.024;13.826;2023-04-28T01:01:22;4.20;99.90
1277;DHT22;631;51.024;13.826;2023-04-28T01:03:48;4.20;99.90
1277;DHT22;631;51.024;13.826;2023-04-28T01:06:14;4.20;99.90
1277;DHT22;631;51.024;13.826;2023-04-28T01:08:40;4.10;99.90
1277;DHT22;631;51.024;13.826;2023-04-28T01:11:07;4.10;99.90
1277;DHT22;631;51.024;13.826;2023-04-28T01:13:34;4.20;99.90
1277;DHT22;631;51.024;13.826;2023-04-28T01:16:00;4.10;99.90
1277;DHT22;631;51.024;13.826;2023-04-28T01:18:26;4.20;99.90
1277;DHT22;631;51.024;13.826;2023-04-28T01:20:52;4.20;99.90
1277;DHT22;631;51.024;13.826;2023-04-28T01:23:17;4.20;99.90
1277;DHT22;631;51.024;13.826;2023-04-28T01:25:43;4.20;99.90
1277;DHT22;631;51.024;13.826;2023-04-28T01:28:10;4.20;99.90
1277;DHT22;631;51.024;13.826;2023-04-28T01:30:36;4.20;99.90
1277;DHT22;631;51.024;13.826;2023-04-28T01:33:02;4.20;99.90
1277;DHT22;631;51.024;13.826;2023-04-28T01:35:28;4.20;99.90
1277;DHT22;631;51.024;13.826;2023-04-28T01:37:53;4.20;99.90
1277;DHT22;631;51.024;13.826;2023-04-28T01:40:19;4.20;99.90
1277;DHT22;631;51.024;13.826;2023-04-28T01:42:45;4.20;99.90
1277;DHT22;631;51.024;13.826;2023-04-28T01:45:10;4.20;99.90
1277;DHT22;631;51.024;13.826;2023-04-28T01:47:36;4.20;99.90
1277;DHT22;631;51.024;13.826;2023-04-28T01:50:02;4.20;99.90
1277;DHT22;631;51.024;13.826;2023-04-28T01:52:28;4.20;99.90
1277;DHT22;631;51.024;13.826;2023-04-28T01:54:53;4.20;99.90
1277;DHT22;631;51.024;13.826;2023-04-28T01:57:19;4.10;99.90
1277;DHT22;631;51.024;13.826;2023-04-28T01:59:45;4.10;99.90
1277;DHT22;631;51.024;13.826;2023-04-28T02:02:11;4.10;99.90
1277;DHT22;631;51.024;13.826;2023-04-28T02:04:37;4.00;99.90
1277;DHT22;631;51.024;13.826;2023-04-28T02:07:03;4.10;99.90
1277;DHT22;631;51.024;13.826;2023-04-28T02:09:29;4.00;99.90
1277;DHT22;631;51.024;13.826;2023-04-28T02:11:54;4.00;99.90
1277;DHT22;631;51.024;13.826;2023-04-28T02:14:20;4.00;99.90
1277;DHT22;631;51.024;13.826;2023-04-28T02:16:46;4.00;99.90
1277;DHT22;631;51.024;13.826;2023-04-28T02:19:11;3.90;99.90
1277;DHT22;631;51.024;13.826;2023-04-28T02:21:37;3.90;99.90
1277;DHT22;631;51.024;13.826;2023-04-28T02:24:03;3.90;99.90
1277;DHT22;631;51.024;13.826;2023-04-28T02:26:29;3.80;99.90
1277;DHT22;631;51.024;13.826;2023-04-28T02:28:54;3.80;99.90
1277;DHT22;631;51.024;13.826;2023-04-28T02:31:21;3.80;99.90
1277;DHT22;631;51.024;13.826;2023-04-28T02:33:46;3.80;99.90
1277;DHT22;631;51.024;13.826;2023-04-28T02:36:12;3.80;99.90
1277;DHT22;631;51.024;13.826;2023-04-28T02:38:38;3.80;99.90
1277;DHT22;631;51.024;13.826;2023-04-28T02:41:06;3.70;99.90
1277;DHT22;631;51.024;13.826;2023-04-28T02:43:34;3.70;99.90
1277;DHT22;631;51.024;13.826;2023-04-28T02:46:02;3.70;99.90
1277;DHT22;631;51.024;13.826;2023-04-28T02:48:27;3.70;99.90
1277;DHT22;631;51.024;13.826;2023-04-28T02:50:53;3.70;99.90
1277;DHT22;631;51.024;13.826;2023-04-28T02:53:19;3.60;99.90
1277;DHT22;631;51.024;13.826;2023-04-28T02:55:45;3.70;99.90
1277;DHT22;631;51.024;13.826;2023-04-28T02:58:11;3.70;99.90
1277;DHT22;631;51.024;13.826;2023-04-28T03:00:36;3.70;99.90
1277;DHT22;631;51.024;13.826;2023-04-28T03:03:02;3.70;99.90
1277;DHT22;631;51.024;13.826;2023-04-28T03:05:28;3.80;99.90
1277;DHT22;631;51.024;13.826;2023-04-28T03:07:54;3.80;99.90
1277;DHT22;631;51.024;13.826;2023-04-28T03:10:19;3.80;99.90
1277;DHT22;631;51.024;13.826;2023-04-28T03:12:45;3.90;99.90
1277;DHT22;631;51.024;13.826;2023-04-28T03:15:10;3.90;99.90
1277;DHT22;631;51.024;13.826;2023-04-28T03:17:36;4.00;99.90
1277;DHT22;631;51.024;13.826;2023-04-28T03:20:04;4.00;99.90
1277;DHT22;631;51.024;13.826;2023-04-28T03:22:30;4.10;99.90
1277;DHT22;631;51.024;13.826;2023-04-28T03:24:55;4.10;99.90
1277;DHT22;631;51.024;13.826;2023-04-28T03:27:21;4.10;99.90
1277;DHT22;631;51.024;13.826;2023-04-28T03:29:47;4.20;99.90
1277;DHT22;631;51.024;13.826;2023-04-28T03:32:13;4.20;99.90
1277;DHT22;631;51.024;13.826;2023-04-28T03:34:38;4.20;99.90
1277;DHT22;631;51.024;13.826;2023-04-28T03:37:04;4.20;99.90
1277;DHT22;631;51.024;13.826;2023-04-28T03:39:30;4.20;99.90
1277;DHT22;631;51.024;13.826;2023-04-28T03:41:55;4.30;99.90
1277;DHT22;631;51.024;13.826;2023-04-28T03:44:21;4.30;99.90
1277;DHT22;631;51.024;13.826;2023-04-28T03:46:48;4.30;99.90
1277;DHT22;631;51.024;13.826;2023-04-28T03:49:14;4.40;99.90
1277;DHT22;631;51.024;13.826;2023-04-28T03:51:40;4.40;99.90
1277;DHT22;631;51.024;13.826;2023-04-28T03:54:05;4.40;99.90
1277;DHT22;631;51.024;13.826;2023-04-28T03:56:31;4.40;99.90
1277;DHT22;631;51.024;13.826;2023-04-28T03:58:57;4.50;99.90
1277;DHT22;631;51.024;13.826;2023-04-28T04:01:23;4.50;99.90
1277;DHT22;631;51.024;13.826;2023-04-28T04:03:49;4.50;99.90
1277;DHT22;631;51.024;13.826;2023-04-28T04:06:15;4.60;99.90
1277;DHT22;631;51.024;13.826;2023-04-28T04:08:41;4.60;99.90
1277;DHT22;631;51.024;13.826;2023-04-28T04:11:07;4.70;99.90
1277;DHT22;631;51.024;13.826;2023-04-28T04:13:32;4.70;99.90
1277;DHT22;631;51.024;13.826;2023-04-28T04:15:58;4.80;99.90
1277;DHT22;631;51.024;13.826;2023-04-28T04:18:24;4.80;99.90
1277;DHT22;631;51.024;13.826;2023-04-28T04:20:49;4.90;99.90
1277;DHT22;631;51.024;13.826;2023-04-28T04:23:15;5.00;99.90
1277;DHT22;631;51.024;13.826;2023-04-28T04:25:42;5.10;99.90
1277;DHT22;631;51.024;13.826;2023-04-28T04:28:07;5.20;99.90
1277;DHT22;631;51.024;13.826;2023-04-28T04:30:33;5.30;99.90
1277;DHT22;631;51.024;13.826;2023-04-28T04:32:59;5.40;99.90
1277;DHT22;631;51.024;13.826;2023-04-28T04:35:24;5.50;99.90
1277;DHT22;631;51.024;13.826;2023-04-28T04:37:50;5.60;99.90
1277;DHT22;631;51.024;13.826;2023-04-28T04:40:16;5.70;99.90
1277;DHT22;631;51.024;13.826;2023-04-28T04:42:41;5.80;99.90
1277;DHT22;631;51.024;13.826;2023-04-28T04:45:07;6.00;99.90
1277;DHT22;631;51.024;13.826;2023-04-28T04:47:33;6.10;99.90
1277;DHT22;631;51.024;13.826;2023-04-28T04:49:58;6.30;99.90
1277;DHT22;631;51.024;13.826;2023-04-28T04:52:24;6.40;99.90
1277;DHT22;631;51.024;13.826;2023-04-28T04:54:50;6.60;99.90
1277;DHT22;631;51.024;13.826;2023-04-28T04:57:16;6.80;99.90
1277;DHT22;631;51.024;13.826;2023-04-28T04:59:41;7.00;99.90
1277;DHT22;631;51.024;13.826;2023-04-28T05:02:07;7.20;99.10
1277;DHT22;631;51.024;13.826;2023-04-28T05:04:33;7.40;98.50
1277;DHT22;631;51.024;13.826;2023-04-28T05:06:58;7.60;97.40
1277;DHT22;631;51.024;13.826;2023-04-28T05:09:24;7.80;96.40
1277;DHT22;631;51.024;13.826;2023-04-28T05:11:50;8.00;95.70
1277;DHT22;631;51.024;13.826;2023-04-28T05:14:15;8.20;94.70
1277;DHT22;631;51.024;13.826;2023-04-28T05:16:41;8.30;94.60
1277;DHT22;631;51.024;13.826;2023-04-28T05:19:07;8.40;93.80
1277;DHT22;631;51.024;13.826;2023-04-28T05:21:33;8.50;93.60
1277;DHT22;631;51.024;13.826;2023-04-28T05:23:58;8.60;92.90
1277;DHT22;631;51.024;13.826;2023-04-28T05:26:24;8.70;92.60
1277;DHT22;631;51.024;13.826;2023-04-28T05:28:50;8.80;92.00
1277;DHT22;631;51.024;13.826;2023-04-28T05:31:16;8.90;91.70
1277;DHT22;631;51.024;13.826;2023-04-28T05:33:42;8.90;91.40
1277;DHT22;631;51.024;13.826;2023-04-28T05:36:08;8.90;91.00
1277;DHT22;631;51.024;13.826;2023-04-28T05:38:34;8.90;90.40
1277;DHT22;631;51.024;13.826;2023-04-28T05:41:00;9.00;90.00
1277;DHT22;631;51.024;13.826;2023-04-28T05:43:26;9.10;90.40
1277;DHT22;631;51.024;13.826;2023-04-28T05:45:52;9.20;90.20
1277;DHT22;631;51.024;13.826;2023-04-28T05:48:18;9.30;89.50
1277;DHT22;631;51.024;13.826;2023-04-28T05:50:44;9.30;87.90
1277;DHT22;631;51.024;13.826;2023-04-28T05:53:10;9.40;87.70
1277;DHT22;631;51.024;13.826;2023-04-28T05:55:35;9.50;87.90
1277;DHT22;631;51.024;13.826;2023-04-28T05:58:02;9.50;87.10
1277;DHT22;631;51.024;13.826;2023-04-28T06:00:27;9.50;86.60
1277;DHT22;631;51.024;13.826;2023-04-28T06:02:53;9.50;86.00
1277;DHT22;631;51.024;13.826;2023-04-28T06:05:19;9.60;86.30
1277;DHT22;631;51.024;13.826;2023-04-28T06:07:45;9.70;86.00
1277;DHT22;631;51.024;13.826;2023-04-28T06:10:11;9.70;86.10
1277;DHT22;631;51.024;13.826;2023-04-28T06:12:37;9.70;85.40
1277;DHT22;631;51.024;13.826;2023-04-28T06:15:03;9.80;84.80
1277;DHT22;631;51.024;13.826;2023-04-28T06:17:29;9.90;84.60
1277;DHT22;631;51.024;13.826;2023-04-28T06:19:57;10.00;83.00
1277;DHT22;631;51.024;13.826;2023-04-28T06:22:24;10.20;82.10
1277;DHT22;631;51.024;13.826;2023-04-28T06:24:50;10.40;81.70
1277;DHT22;631;51.024;13.826;2023-04-28T06:27:16;10.60;81.90
1277;DHT22;631;51.024;13.826;2023-04-28T06:29:42;10.90;81.80
1277;DHT22;631;51.024;13.826;2023-04-28T06:32:07;11.10;79.10
1277;DHT22;631;51.024;13.826;2023-04-28T06:34:34;11.20;77.50
1277;DHT22;631;51.024;13.826;2023-04-28T06:37:00;11.30;76.30
1277;DHT22;631;51.024;13.826;2023-04-28T06:39:26;11.50;75.90
1277;DHT22;631;51.024;13.826;2023-04-28T06:41:52;11.50;75.30
1277;DHT22;631;51.024;13.826;2023-04-28T06:44:17;11.60;76.10
1277;DHT22;631;51.024;13.826;2023-04-28T06:46:43;11.70;74.20
1277;DHT22;631;51.024;13.826;2023-04-28T06:49:09;11.80;73.40
1277;DHT22;631;51.024;13.826;2023-04-28T06:51:34;11.90;73.90
1277;DHT22;631;51.024;13.826;2023-04-28T06:54:00;12.00;72.50
1277;DHT22;631;51.024;13.826;2023-04-28T06:56:26;12.00;72.00
1277;DHT22;631;51.024;13.826;2023-04-28T06:58:54;11.90;72.50
1277;DHT22;631;51.024;13.826;2023-04-28T07:01:24;11.90;72.00
1277;DHT22;631;51.024;13.826;2023-04-28T07:03:49;12.10;72.00
1277;DHT22;631;51.024;13.826;2023-04-28T07:06:15;12.20;72.50
1277;DHT22;631;51.024;13.826;2023-04-28T07:08:42;12.20;71.40
1277;DHT22;631;51.024;13.826;2023-04-28T07:11:07;12.20;70.50
1277;DHT22;631;51.024;13.826;2023-04-28T07:13:33;12.30;71.60
1277;DHT22;631;51.024;13.826;2023-04-28T07:15:59;12.30;71.00
1277;DHT22;631;51.024;13.826;2023-04-28T07:18:25;12.40;71.60
1277;DHT22;631;51.024;13.826;2023-04-28T07:20:51;12.50;71.30
1277;DHT22;631;51.024;13.826;2023-04-28T07:23:16;12.60;70.10
1277;DHT22;631;51.024;13.826;2023-04-28T07:25:42;12.70;69.70
1277;DHT22;631;51.024;13.826;2023-04-28T07:28:08;12.90;69.20
1277;DHT22;631;51.024;13.826;2023-04-28T07:30:34;13.00;68.00
1277;DHT22;631;51.024;13.826;2023-04-28T07:33:00;13.30;68.10
1277;DHT22;631;51.024;13.826;2023-04-28T07:35:27;13.40;66.50
1277;DHT22;631;51.024;13.826;2023-04-28T07:37:53;13.50;66.30
1277;DHT22;631;51.024;13.826;2023-04-28T07:40:19;13.40;64.60
1277;DHT22;631;51.024;13.826;2023-04-28T07:42:45;13.40;65.60
1277;DHT22;631;51.024;13.826;2023-04-28T07:45:11;13.40;66.30
1277;DHT22;631;51.024;13.826;2023-04-28T07:47:37;13.40;65.90
1277;DHT22;631;51.024;13.826;2023-04-28T07:50:03;13.50;65.40
1277;DHT22;631;51.024;13.826;2023-04-28T07:52:31;13.60;65.60
1277;DHT22;631;51.024;13.826;2023-04-28T07:54:58;13.80;64.70
1277;DHT22;631;51.024;13.826;2023-04-28T07:57:24;13.80;64.10
1277;DHT22;631;51.024;13.826;2023-04-28T07:59:50;14.00;64.60
1277;DHT22;631;51.024;13.826;2023-04-28T08:02:16;14.10;62.30
1277;DHT22;631;51.024;13.826;2023-04-28T08:04:41;14.10;61.90
1277;DHT22;631;51.024;13.826;2023-04-28T08:07:08;14.30;61.80
1277;DHT22;631;51.024;13.826;2023-04-28T08:09:34;14.30;61.30
1277;DHT22;631;51.024;13.826;2023-04-28T08:12:00;14.30;59.80
1277;DHT22;631;51.024;13.826;2023-04-28T08:14:26;14.30;60.40
1277;DHT22;631;51.024;13.826;2023-04-28T08:16:52;14.40;60.00
1277;DHT22;631;51.024;13.826;2023-04-28T08:19:18;14.50;59.90
1277;DHT22;631;51.024;13.826;2023-04-28T08:21:43;14.50;59.30
1277;DHT22;631;51.024;13.826;2023-04-28T08:24:09;14.70;59.30
1277;DHT22;631;51.024;13.826;2023-04-28T08:26:36;14.90;58.60
1277;DHT22;631;51.024;13.826;2023-04-28T08:29:03;15.10;58.30
1277;DHT22;631;51.024;13.826;2023-04-28T08:31:29;15.20;57.30
1277;DHT22;631;51.024;13.826;2023-04-28T08:33:54;15.40;57.60
1277;DHT22;631;51.024;13.826;2023-04-28T08:36:20;15.70;57.70
1277;DHT22;631;51.024;13.826;2023-04-28T08:38:46;16.00;55.80
1277;DHT22;631;51.024;13.826;2023-04-28T08:41:15;16.30;55.10
1277;DHT22;631;51.024;13.826;2023-04-28T08:43:41;16.50;54.60
1277;DHT22;631;51.024;13.826;2023-04-28T08:46:08;16.80;54.60
1277;DHT22;631;51.024;13.826;2023-04-28T08:48:41;17.00;54.20
1277;DHT22;631;51.024;13.826;2023-04-28T08:51:08;17.30;51.90
1277;DHT22;631;51.024;13.826;2023-04-28T08:53:38;17.10;50.80
1277;DHT22;631;51.024;13.826;2023-04-28T08:56:08;17.20;51.80
1277;DHT22;631;51.024;13.826;2023-04-28T08:58:35;17.30;51.40
1277;DHT22;631;51.024;13.826;2023-04-28T09:01:04;17.50;50.40
1277;DHT22;631;51.024;13.826;2023-04-28T09:03:30;17.80;50.80
1277;DHT22;631;51.024;13.826;2023-04-28T09:05:57;18.00;49.00
1277;DHT22;631;51.024;13.826;2023-04-28T09:08:23;18.10;48.60
1277;DHT22;631;51.024;13.826;2023-04-28T09:11:07;18.20;49.10
1277;DHT22;631;51.024;13.826;2023-04-28T09:13:34;18.40;48.40
1277;DHT22;631;51.024;13.826;2023-04-28T09:16:00;18.70;48.50
1277;DHT22;631;51.024;13.826;2023-04-28T09:18:27;18.80;46.70
1277;DHT22;631;51.024;13.826;2023-04-28T09:21:02;18.90;46.60
1277;DHT22;631;51.024;13.826;2023-04-28T09:23:28;19.30;46.40
1277;DHT22;631;51.024;13.826;2023-04-28T09:26:01;19.60;44.60
1277;DHT22;631;51.024;13.826;2023-04-28T09:28:28;19.70;43.80
1277;DHT22;631;51.024;13.826;2023-04-28T09:30:54;19.70;42.20
1277;DHT22;631;51.024;13.826;2023-04-28T09:33:20;19.00;43.20
1277;DHT22;631;51.024;13.826;2023-04-28T09:35:46;19.20;44.60
1277;DHT22;631;51.024;13.826;2023-04-28T09:38:16;19.30;43.10
1277;DHT22;631;51.024;13.826;2023-04-28T09:40:51;19.20;42.00
1277;DHT22;631;51.024;13.826;2023-04-28T09:43:31;19.10;42.60
1277;DHT22;631;51.024;13.826;2023-04-28T09:46:04;18.90;41.60
1277;DHT22;631;51.024;13.826;2023-04-28T09:48:37;18.80;41.90
1277;DHT22;631;51.024;13.826;2023-04-28T09:51:04;18.70;41.40
1277;DHT22;631;51.024;13.826;2023-04-28T09:53:31;18.50;41.90
1277;DHT22;631;51.024;13.826;2023-04-28T09:55:59;18.30;42.50
1277;DHT22;631;51.024;13.826;2023-04-28T09:58:26;18.10;42.60
1277;DHT22;631;51.024;13.826;2023-04-28T10:00:57;18.20;43.00
1277;DHT22;631;51.024;13.826;2023-04-28T10:03:25;18.00;42.20
1277;DHT22;631;51.024;13.826;2023-04-28T10:05:51;17.80;42.40
1277;DHT22;631;51.024;13.826;2023-04-28T10:08:19;17.80;42.70
1277;DHT22;631;51.024;13.826;2023-04-28T10:10:46;17.90;43.10
1277;DHT22;631;51.024;13.826;2023-04-28T10:13:15;17.80;42.90
1277;DHT22;631;51.024;13.826;2023-04-28T10:15:41;17.60;43.00
1277;DHT22;631;51.024;13.826;2023-04-28T10:18:07;17.60;44.10
1277;DHT22;631;51.024;13.826;2023-04-28T10:20:33;17.50;44.60
1277;DHT22;631;51.024;13.826;2023-04-28T10:25:48;17.40;44.10
1277;DHT22;631;51.024;13.826;2023-04-28T10:28:17;17.40;45.90
1277;DHT22;631;51.024;13.826;2023-04-28T10:31:11;17.30;45.70
1277;DHT22;631;51.024;13.826;2023-04-28T10:33:37;17.30;47.80
1277;DHT22;631;51.024;13.826;2023-04-28T10:36:04;17.30;47.20
1277;DHT22;631;51.024;13.826;2023-04-28T10:38:30;17.30;47.80
1277;DHT22;631;51.024;13.826;2023-04-28T10:40:56;17.10;45.90
1277;DHT22;631;51.024;13.826;2023-04-28T10:58:43;14.60;75.50
1277;DHT22;631;51.024;13.826;2023-04-28T11:01:28;14.40;79.50
1277;DHT22;631;51.024;13.826;2023-04-28T11:04:06;14.20;84.60
1277;DHT22;631;51.024;13.826;2023-04-28T11:06:41;14.00;89.40
1277;DHT22;631;51.024;13.826;2023-04-28T11:12:04;13.90;99.80
1277;DHT22;631;51.024;13.826;2023-04-28T11:14:33;14.00;99.90
1277;DHT22;631;51.024;13.826;2023-04-28T11:17:04;14.00;99.90
1277;DHT22;631;51.024;13.826;2023-04-28T11:19:34;14.10;99.90
1277;DHT22;631;51.024;13.826;2023-04-28T11:22:03;14.10;99.90
1277;DHT22;631;51.024;13.826;2023-04-28T11:24:30;14.20;99.90
1277;DHT22;631;51.024;13.826;2023-04-28T11:26:59;14.30;99.90
1277;DHT22;631;51.024;13.826;2023-04-28T11:31:57;14.50;99.90
1277;DHT22;631;51.024;13.826;2023-04-28T11:34:23;14.50;99.90
1277;DHT22;631;51.024;13.826;2023-04-28T11:36:49;14.50;99.90
1277;DHT22;631;51.024;13.826;2023-04-28T11:39:15;14.50;99.90
1277;DHT22;631;51.024;13.826;2023-04-28T11:41:44;14.60;99.90
1277;DHT22;631;51.024;13.826;2023-04-28T11:44:15;14.60;99.30
1277;DHT22;631;51.024;13.826;2023-04-28T11:49:10;14.70;99.90
1277;DHT22;631;51.024;13.826;2023-04-28T11:51:37;14.60;98.50
1277;DHT22;631;51.024;13.826;2023-04-28T11:54:06;14.70;98.90
1277;DHT22;631;51.024;13.826;2023-04-28T11:56:39;14.80;99.90
1277;DHT22;631;51.024;13.826;2023-04-28T11:59:07;14.90;99.90
1277;DHT22;631;51.024;13.826;2023-04-28T12:01:34;14.90;99.70
1277;DHT22;631;51.024;13.826;2023-04-28T12:04:08;14.70;98.80
1277;DHT22;631;51.024;13.826;2023-04-28T12:06:34;14.50;99.20
1277;DHT22;631;51.024;13.826;2023-04-28T12:08:59;14.40;98.00
1277;DHT22;631;51.024;13.826;2023-04-28T12:11:29;14.40;98.40
1277;DHT22;631;51.024;13.826;2023-04-28T12:14:03;14.40;98.30
1277;DHT22;631;51.024;13.826;2023-04-28T12:16:39;14.40;98.30
1277;DHT22;631;51.024;13.826;2023-04-28T12:19:08;14.20;95.10
1277;DHT22;631;51.024;13.826;2023-04-28T12:21:36;14.00;94.70
1277;DHT22;631;51.024;13.826;2023-04-28T12:24:13;14.10;96.80
1277;DHT22;631;51.024;13.826;2023-04-28T12:26:39;14.10;95.70
1277;DHT22;631;51.024;13.826;2023-04-28T12:29:05;14.20;95.50
1277;DHT22;631;51.024;13.826;2023-04-28T12:31:30;14.30;95.00
1277;DHT22;631;51.024;13.826;2023-04-28T12:33:56;14.50;94.80
1277;DHT22;631;51.024;13.826;2023-04-28T12:36:22;14.60;94.40
1277;DHT22;631;51.024;13.826;2023-04-28T12:38:48;14.80;94.90
1277;DHT22;631;51.024;13.826;2023-04-28T12:41:13;15.00;93.70
1277;DHT22;631;51.024;13.826;2023-04-28T12:43:39;15.30;95.40
1277;DHT22;631;51.024;13.826;2023-04-28T12:46:05;15.50;93.10
1277;DHT22;631;51.024;13.826;2023-04-28T12:48:33;15.60;92.40
1277;DHT22;631;51.024;13.826;2023-04-28T12:50:59;15.80;92.90
1277;DHT22;631;51.024;13.826;2023-04-28T12:53:25;15.70;93.90
1277;DHT22;631;51.024;13.826;2023-04-28T12:55:50;15.30;92.80
1277;DHT22;631;51.024;13.826;2023-04-28T12:58:16;15.30;94.60
1277;DHT22;631;51.024;13.826;2023-04-28T13:00:42;14.90;95.10
1277;DHT22;631;51.024;13.826;2023-04-28T13:03:08;14.80;97.20
1277;DHT22;631;51.024;13.826;2023-04-28T13:05:34;14.70;96.80
1277;DHT22;631;51.024;13.826;2023-04-28T13:08:00;14.60;97.60
1277;DHT22;631;51.024;13.826;2023-04-28T13:10:25;14.50;96.60
1277;DHT22;631;51.024;13.826;2023-04-28T13:12:51;14.30;97.30
1277;DHT22;631;51.024;13.826;2023-04-28T13:15:17;14.00;97.50
1277;DHT22;631;51.024;13.826;2023-04-28T13:17:42;13.70;98.10
1277;DHT22;631;51.024;13.826;2023-04-28T13:20:10;13.60;99.20
1277;DHT22;631;51.024;13.826;2023-04-28T13:22:36;13.60;99.90
1277;DHT22;631;51.024;13.826;2023-04-28T13:25:02;13.50;99.40
1277;DHT22;631;51.024;13.826;2023-04-28T13:27:28;13.50;99.90
1277;DHT22;631;51.024;13.826;2023-04-28T13:29:55;13.50;99.90
1277;DHT22;631;51.024;13.826;2023-04-28T13:32:23;13.50;99.90
1277;DHT22;631;51.024;13.826;2023-04-28T13:34:49;13.60;99.90
1277;DHT22;631;51.024;13.826;2023-04-28T13:37:14;13.60;99.90
1277;DHT22;631;51.024;13.826;2023-04-28T13:39:40;13.60;99.90
1277;DHT22;631;51.024;13.826;2023-04-28T13:42:05;13.60;99.90
1277;DHT22;631;51.024;13.826;2023-04-28T13:44:31;13.70;99.90
1277;DHT22;631;51.024;13.826;2023-04-28T13:46:57;13.80;99.90
1277;DHT22;631;51.024;13.826;2023-04-28T13:49:23;13.80;99.90
1277;DHT22;631;51.024;13.826;2023-04-28T13:51:49;13.90;99.90
1277;DHT22;631;51.024;13.826;2023-04-28T13:54:14;13.90;99.90
1277;DHT22;631;51.024;13.826;2023-04-28T13:56:40;14.10;99.90
1277;DHT22;631;51.024;13.826;2023-04-28T13:59:06;14.10;99.90
1277;DHT22;631;51.024;13.826;2023-04-28T14:01:31;14.20;99.90
1277;DHT22;631;51.024;13.826;2023-04-28T14:03:57;14.30;99.90
1277;DHT22;631;51.024;13.826;2023-04-28T14:06:23;14.30;99.90
1277;DHT22;631;51.024;13.826;2023-04-28T14:08:48;14.30;99.90
1277;DHT22;631;51.024;13.826;2023-04-28T14:11:14;14.30;99.90
1277;DHT22;631;51.024;13.826;2023-04-28T14:13:39;14.20;99.90
1277;DHT22;631;51.024;13.826;2023-04-28T14:16:05;14.10;99.90
1277;DHT22;631;51.024;13.826;2023-04-28T14:18:31;14.10;99.90
1277;DHT22;631;51.024;13.826;2023-04-28T14:20:58;14.00;99.90
1277;DHT22;631;51.024;13.826;2023-04-28T14:23:23;14.00;99.90
1277;DHT22;631;51.024;13.826;2023-04-28T14:25:51;13.90;99.90
1277;DHT22;631;51.024;13.826;2023-04-28T14:28:20;13.90;99.90
1277;DHT22;631;51.024;13.826;2023-04-28T14:30:46;13.90;99.90
1277;DHT22;631;51.024;13.826;2023-04-28T14:33:11;13.90;99.90
1277;DHT22;631;51.024;13.826;2023-04-28T14:35:37;13.90;99.90
1277;DHT22;631;51.024;13.826;2023-04-28T14:38:03;13.90;99.90
1277;DHT22;631;51.024;13.826;2023-04-28T14:40:30;13.90;99.90
1277;DHT22;631;51.024;13.826;2023-04-28T14:42:55;13.90;99.90
1277;DHT22;631;51.024;13.826;2023-04-28T14:45:21;14.00;99.90
1277;DHT22;631;51.024;13.826;2023-04-28T14:47:47;14.00;99.90
1277;DHT22;631;51.024;13.826;2023-04-28T14:50:13;13.90;99.90
1277;DHT22;631;51.024;13.826;2023-04-28T14:52:38;13.80;99.90
1277;DHT22;631;51.024;13.826;2023-04-28T14:55:04;14.00;99.90
1277;DHT22;631;51.024;13.826;2023-04-28T14:57:30;14.00;99.90
1277;DHT22;631;51.024;13.826;2023-04-28T14:59:56;14.10;99.90
1277;DHT22;631;51.024;13.826;2023-04-28T15:02:22;14.10;99.90
1277;DHT22;631;51.024;13.826;2023-04-28T15:04:56;14.20;99.90
1277;DHT22;631;51.024;13.826;2023-04-28T15:07:22;14.20;99.90
1277;DHT22;631;51.024;13.826;2023-04-28T15:09:48;14.20;99.90
1277;DHT22;631;51.024;13.826;2023-04-28T15:12:14;14.20;99.90
1277;DHT22;631;51.024;13.826;2023-04-28T15:14:40;14.20;99.90
1277;DHT22;631;51.024;13.826;2023-04-28T15:17:06;14.30;99.90
1277;DHT22;631;51.024;13.826;2023-04-28T15:19:32;14.30;99.90
1277;DHT22;631;51.024;13.826;2023-04-28T15:21:58;14.40;99.90
1277;DHT22;631;51.024;13.826;2023-04-28T15:24:24;14.50;99.90
1277;DHT22;631;51.024;13.826;2023-04-28T15:26:49;14.50;99.90
1277;DHT22;631;51.024;13.826;2023-04-28T15:29:15;14.50;99.90
1277;DHT22;631;51.024;13.826;2023-04-28T15:31:41;14.50;99.90
1277;DHT22;631;51.024;13.826;2023-04-28T15:34:06;14.40;99.90
1277;DHT22;631;51.024;13.826;2023-04-28T15:36:36;14.40;99.90
1277;DHT22;631;51.024;13.826;2023-04-28T15:39:04;14.30;99.90
1277;DHT22;631;51.024;13.826;2023-04-28T15:41:31;14.30;99.90
1277;DHT22;631;51.024;13.826;2023-04-28T15:43:56;14.30;99.90
1277;DHT22;631;51.024;13.826;2023-04-28T15:46:22;14.30;99.90
1277;DHT22;631;51.024;13.826;2023-04-28T15:48:48;14.20;99.90
1277;DHT22;631;51.024;13.826;2023-04-28T15:51:14;14.20;99.90
1277;DHT22;631;51.024;13.826;2023-04-28T15:53:39;14.20;99.90
1277;DHT22;631;51.024;13.826;2023-04-28T15:56:06;14.20;99.90
1277;DHT22;631;51.024;13.826;2023-04-28T15:58:32;14.20;99.90
1277;DHT22;631;51.024;13.826;2023-04-28T16:00:57;14.30;99.90
1277;DHT22;631;51.024;13.826;2023-04-28T16:03:24;14.20;99.90
1277;DHT22;631;51.024;13.826;2023-04-28T16:05:52;14.10;99.90
1277;DHT22;631;51.024;13.826;2023-04-28T16:08:18;14.10;99.90
1277;DHT22;631;51.024;13.826;2023-04-28T16:10:45;14.00;99.90
1277;DHT22;631;51.024;13.826;2023-04-28T16:13:11;14.00;99.90
1277;DHT22;631;51.024;13.826;2023-04-28T16:15:37;13.90;99.90
1277;DHT22;631;51.024;13.826;2023-04-28T16:18:03;14.00;99.90
1277;DHT22;631;51.024;13.826;2023-04-28T16:20:28;14.00;99.90
1277;DHT22;631;51.024;13.826;2023-04-28T16:22:54;14.00;99.90
1277;DHT22;631;51.024;13.826;2023-04-28T16:25:20;13.90;99.90
1277;DHT22;631;51.024;13.826;2023-04-28T16:27:46;13.80;99.90